Cusseta, GA (31805)

11:29 AM EDT on September 04, 2015 (GMT -0400)
Lawson Army Air Field | | Change Station
CLOSE
Current Station
Airport
Location: Fort Benning,
Elevation: 233 ft
Nearby Weather Stations

Elev 233 ft 32.32 °N, 84.98 °W | Updated 31 minutes ago

Clear
Clear
84 °F
Feels Like 90 °F
N
4
Wind Variable Wind from Variable

Today
High -- | Low -- °F
--% Chance of Precip.
Yesterday
High -- | Low -- °F
Precip. -- in
7:15 AM 7:59 PM
Waning Gibbous, 58% visible
Pressure 30.00 in
Visibility 10.0 miles
Clouds Clear
Heat Index 90 °F
Dew Point 72 °F
Humidity 67%
Rainfall 0.00 in
Snow Depth Not available.
UV 7 out of 12
Pollen 9.00 out of 12
Air Quality Not available.
Flu Activity Not available.
METAR KLSF 041458Z AUTO VRB03KT 10SM CLR 29/22 A3000 RMK AO2 SLP159 T02890222 50002
Pressure 30.00 in
Visibility 10.0 miles
Clouds Clear
Heat Index 90 °F
Dew Point 72 °F
Humidity 67%
Rainfall 0.00 in
Snow Depth Not available.
UV 7 out of 12
Pollen 9.00 out of 12
Air Quality Not available.
Flu Activity Not available.
METAR KLSF 041458Z AUTO VRB03KT 10SM CLR 29/22 A3000 RMK AO2 SLP159 T02890222 50002

10-Day Weather Forecast

×

Almanac

Astronomy

Sep. 04, 2015 Rise Set
Actual Time
Civil Twilight
Nautical Twilight
Astronomical Twilight
Moon
Length of Visible Light
Length of Day
Tomorrow will be .
, % of the Moon is Illuminated

Today's Extremes

State Highs State Lows

Community

WunderPhotos

Upload Photos

1,852,194 photos uploaded!

WunderBlogs® & News

Nearby

Air Quality

  Air Quality AQ Index Pollutant
Not available.

Snow Depth

Station Depth Elevation

Earthquake Activity

City Distance Mag. Time & Date
Minimum magnitude displayed is 2.5.

Coastal Water Temperatures

Place Temperature

Stations

Nearby Weather Stations

Station Location Temp. Windchill Dew Point Humidity Wind Precip. Elev Updated Type